createdAt,value
2019-05-20T00:01:22.245Z,18.00
2019-05-20T00:03:51.265Z,18.42
2019-05-20T00:06:22.224Z,17.62
2019-05-20T00:08:51.203Z,17.87
2019-05-20T00:11:20.096Z,15.28
2019-05-20T00:13:49.263Z,16.35
2019-05-20T00:16:18.356Z,18.77
2019-05-20T00:18:47.474Z,19.57
2019-05-20T00:21:16.277Z,23.75
2019-05-20T00:23:45.026Z,19.35
2019-05-20T00:26:15.971Z,17.25
2019-05-20T00:28:46.077Z,16.02
2019-05-20T00:31:15.314Z,18.90
2019-05-20T00:33:44.379Z,23.07
2019-05-20T00:36:13.470Z,20.48
2019-05-20T00:38:42.674Z,18.42
2019-05-20T00:41:11.690Z,16.85
2019-05-20T00:43:40.537Z,24.20
2019-05-20T00:46:09.215Z,17.87
2019-05-20T00:48:38.037Z,18.42
2019-05-20T00:51:06.999Z,19.30
2019-05-20T00:53:35.931Z,17.07
2019-05-20T00:56:05.029Z,20.75
2019-05-20T00:58:34.088Z,20.88
2019-05-20T01:01:03.177Z,18.23
2019-05-20T01:03:32.210Z,14.87
2019-05-20T01:06:01.066Z,18.07
2019-05-20T01:08:29.678Z,18.12
2019-05-20T01:10:58.692Z,18.75
2019-05-20T01:13:27.678Z,17.42
2019-05-20T01:15:56.321Z,17.25
2019-05-20T01:18:25.410Z,15.88
2019-05-20T01:20:54.606Z,18.12
2019-05-20T01:23:23.714Z,15.90
2019-05-20T01:25:52.695Z,19.70
2019-05-20T01:28:21.888Z,19.48
2019-05-20T01:30:51.102Z,17.30
2019-05-20T01:33:20.198Z,17.15
2019-05-20T01:35:48.978Z,16.25
2019-05-20T01:38:17.971Z,21.80
2019-05-20T01:40:46.947Z,19.42
2019-05-20T01:43:16.050Z,19.75
2019-05-20T01:45:45.091Z,18.67
2019-05-20T01:48:13.871Z,18.42
2019-05-20T01:50:43.067Z,18.85
2019-05-20T01:53:12.353Z,15.90
2019-05-20T01:55:41.231Z,18.98
2019-05-20T01:58:09.897Z,19.70
2019-05-20T02:00:38.832Z,17.17
2019-05-20T02:03:07.766Z,25.30
2019-05-20T02:05:36.690Z,15.45
2019-05-20T02:08:05.466Z,19.05
2019-05-20T02:10:34.469Z,17.23
2019-05-20T02:13:03.156Z,16.82
2019-05-20T02:15:36.135Z,18.77
2019-05-20T02:18:05.123Z,18.75
2019-05-20T02:20:34.015Z,17.32
2019-05-20T02:23:16.835Z,19.20
2019-05-20T02:25:47.315Z,19.05
2019-05-20T02:28:16.279Z,15.98
2019-05-20T02:30:46.206Z,16.07
2019-05-20T02:33:15.358Z,17.67
2019-05-20T02:35:44.359Z,20.17
2019-05-20T02:38:13.234Z,19.25
2019-05-20T02:40:42.352Z,21.77
2019-05-20T02:43:11.374Z,16.52
2019-05-20T02:45:40.274Z,19.20
2019-05-20T02:48:09.078Z,16.75
2019-05-20T02:50:38.066Z,17.85
2019-05-20T02:53:06.993Z,18.87
2019-05-20T02:55:35.722Z,19.40
2019-05-20T02:58:04.582Z,16.52
2019-05-20T03:00:33.759Z,21.97
2019-05-20T03:03:02.968Z,19.57
2019-05-20T03:05:31.653Z,20.25
2019-05-20T03:08:00.551Z,20.45
2019-05-20T03:10:29.364Z,19.02
2019-05-20T03:12:58.369Z,19.05
2019-05-20T03:15:27.041Z,18.73
2019-05-20T03:17:57.819Z,19.90
2019-05-20T03:20:26.849Z,22.65
2019-05-20T03:22:55.951Z,20.57
2019-05-20T03:25:25.033Z,24.30
2019-05-20T03:27:54.114Z,23.80
2019-05-20T03:30:22.904Z,21.10
2019-05-20T03:32:51.773Z,17.40
2019-05-20T03:35:20.772Z,17.65
2019-05-20T03:37:49.877Z,18.20
2019-05-20T03:40:18.932Z,18.60
2019-05-20T03:42:47.875Z,22.73
2019-05-20T03:45:16.871Z,23.20
2019-05-20T03:47:45.531Z,22.93
2019-05-20T03:50:14.515Z,20.77
2019-05-20T03:52:43.652Z,20.40
2019-05-20T03:55:12.754Z,20.30
2019-05-20T03:57:41.914Z,19.37
2019-05-20T04:00:11.106Z,20.68
2019-05-20T04:02:40.216Z,26.65
2019-05-20T04:05:09.238Z,18.05
2019-05-20T04:07:38.397Z,21.10
2019-05-20T04:10:07.325Z,20.52
2019-05-20T04:12:36.198Z,19.67
2019-05-20T04:15:05.858Z,23.77
2019-05-20T04:17:34.872Z,18.92
2019-05-20T04:20:04.293Z,20.55
2019-05-20T04:22:33.391Z,19.80
2019-05-20T04:25:02.534Z,18.55
2019-05-20T04:27:31.509Z,22.80
2019-05-20T04:30:00.285Z,15.93
2019-05-20T04:32:29.252Z,19.92
2019-05-20T04:34:58.359Z,18.15
2019-05-20T04:37:27.386Z,23.98
2019-05-20T04:39:56.642Z,19.80
2019-05-20T04:42:25.850Z,17.57
2019-05-20T04:44:55.241Z,18.02
2019-05-20T04:47:24.320Z,20.92
2019-05-20T04:49:53.335Z,17.87
2019-05-20T04:52:22.111Z,16.40
2019-05-20T04:54:51.043Z,15.38
2019-05-20T04:57:20.115Z,16.42
2019-05-20T04:59:49.133Z,17.48
2019-05-20T05:02:19.009Z,19.62
2019-05-20T05:04:47.933Z,16.85
2019-05-20T05:07:16.819Z,16.27
2019-05-20T05:09:45.770Z,20.55
2019-05-20T05:12:14.663Z,19.05
2019-05-20T05:14:43.661Z,21.05
2019-05-20T05:17:12.851Z,17.95
2019-05-20T05:19:42.196Z,17.67
2019-05-20T05:22:11.193Z,25.50
2019-05-20T05:24:42.388Z,30.55
2019-05-20T05:27:11.479Z,19.55
2019-05-20T05:29:40.431Z,18.02
2019-05-20T05:32:09.625Z,19.87
2019-05-20T05:34:38.833Z,17.70
2019-05-20T05:37:07.955Z,18.92
2019-05-20T05:39:37.076Z,17.48
2019-05-20T05:42:06.257Z,17.55
2019-05-20T05:44:35.248Z,15.25
2019-05-20T05:47:04.051Z,16.90
2019-05-20T05:49:32.842Z,22.20
2019-05-20T05:52:02.066Z,25.15
2019-05-20T05:54:31.165Z,17.92
2019-05-20T05:57:00.273Z,17.85
2019-05-20T05:59:29.309Z,16.10
2019-05-20T06:02:00.908Z,17.55
2019-05-20T06:04:29.848Z,19.07
2019-05-20T06:06:58.945Z,26.55
2019-05-20T06:09:29.182Z,18.20
2019-05-20T06:11:58.157Z,20.50
2019-05-20T06:14:27.075Z,20.60
2019-05-20T06:16:55.988Z,22.10
2019-05-20T06:19:24.759Z,20.23
2019-05-20T06:21:53.835Z,22.58
2019-05-20T06:24:23.153Z,22.67
2019-05-20T06:26:51.999Z,21.62
2019-05-20T06:29:21.200Z,19.42
2019-05-20T06:31:50.833Z,18.67
2019-05-20T06:34:19.814Z,21.65
2019-05-20T06:36:51.665Z,17.70
2019-05-20T06:39:20.854Z,18.07
2019-05-20T06:41:49.981Z,20.80
2019-05-20T06:44:18.967Z,23.60
2019-05-20T06:46:47.867Z,24.50
2019-05-20T06:49:16.981Z,22.32
2019-05-20T06:51:46.545Z,22.62
2019-05-20T06:54:15.582Z,22.07
2019-05-20T06:56:44.475Z,18.00
2019-05-20T06:59:13.420Z,21.90
2019-05-20T07:01:43.020Z,23.02
2019-05-20T07:04:11.805Z,21.60
2019-05-20T07:06:46.568Z,23.07
2019-05-20T07:09:12.086Z,20.60
2019-05-20T07:11:51.951Z,24.25
2019-05-20T07:14:11.831Z,22.37
2019-05-20T07:16:42.671Z,19.98
2019-05-20T07:19:11.996Z,19.10
2019-05-20T07:21:41.312Z,17.57
2019-05-20T07:24:10.881Z,24.82
2019-05-20T07:26:39.717Z,21.48
2019-05-20T07:29:08.919Z,18.62
2019-05-20T07:31:37.900Z,20.52
2019-05-20T07:34:07.098Z,21.07
2019-05-20T07:36:36.401Z,20.97
2019-05-20T07:39:06.895Z,21.00
2019-05-20T07:41:35.923Z,18.35
2019-05-20T07:44:04.605Z,19.15
2019-05-20T07:46:34.715Z,17.48
2019-05-20T07:49:03.796Z,20.27
2019-05-20T07:51:33.424Z,19.48
2019-05-20T07:54:03.118Z,29.45
2019-05-20T07:56:33.840Z,18.82
2019-05-20T07:59:04.413Z,18.32
2019-05-20T08:01:33.681Z,17.62
2019-05-20T08:04:02.885Z,18.27
2019-05-20T08:06:32.808Z,16.75
2019-05-20T08:09:02.225Z,20.97
2019-05-20T08:11:31.154Z,17.62
2019-05-20T08:14:00.420Z,20.65
2019-05-20T08:16:30.455Z,19.57
2019-05-20T08:19:00.211Z,18.23
2019-05-20T08:21:29.770Z,22.17
2019-05-20T08:23:59.342Z,21.40
2019-05-20T08:26:29.120Z,22.30
2019-05-20T08:28:58.353Z,17.87
2019-05-20T08:31:27.747Z,19.40
2019-05-20T08:33:57.454Z,19.55
2019-05-20T08:36:26.901Z,19.17
2019-05-20T08:38:56.116Z,18.67
2019-05-20T08:41:25.246Z,21.65
2019-05-20T08:43:54.566Z,22.60
2019-05-20T08:46:24.375Z,20.23
2019-05-20T08:48:53.593Z,19.17
2019-05-20T08:51:22.977Z,25.92
2019-05-20T08:53:52.812Z,24.37
2019-05-20T08:56:22.678Z,23.47
2019-05-20T08:58:51.994Z,22.62
2019-05-20T09:01:21.201Z,24.07
2019-05-20T09:03:50.199Z,24.90
2019-05-20T09:06:20.749Z,26.33
2019-05-20T09:08:49.996Z,26.02
2019-05-20T09:11:19.344Z,23.47
2019-05-20T09:13:48.444Z,28.17
2019-05-20T09:16:18.355Z,26.17
2019-05-20T09:18:47.677Z,27.05
2019-05-20T09:21:16.933Z,34.75
2019-05-20T09:23:46.334Z,28.62
2019-05-20T09:26:15.664Z,26.40
2019-05-20T09:28:44.909Z,31.12
2019-05-20T09:31:14.013Z,30.37
2019-05-20T09:33:43.245Z,29.57
2019-05-20T09:36:12.300Z,23.80
2019-05-20T09:38:41.398Z,32.53
2019-05-20T09:41:10.288Z,44.45
2019-05-20T09:43:39.135Z,28.20
2019-05-20T09:46:08.944Z,24.95
2019-05-20T09:48:38.220Z,36.90
2019-05-20T09:51:09.060Z,38.63
2019-05-20T09:53:38.340Z,44.55
2019-05-20T09:56:07.150Z,31.90
2019-05-20T09:58:36.308Z,28.17
2019-05-20T10:01:05.727Z,37.08
2019-05-20T10:03:34.799Z,38.28
2019-05-20T10:06:06.189Z,36.63
2019-05-20T10:08:40.979Z,29.55
2019-05-20T10:11:06.200Z,29.42
2019-05-20T10:13:35.075Z,27.52
2019-05-20T10:16:03.768Z,30.95
2019-05-20T10:18:37.509Z,30.57
2019-05-20T10:21:03.816Z,27.05
2019-05-20T10:23:32.785Z,33.88
2019-05-20T10:26:01.914Z,29.77
2019-05-20T10:28:30.577Z,29.92
2019-05-20T10:30:59.484Z,101.27
2019-05-20T10:33:28.246Z,38.00
2019-05-20T10:35:57.030Z,34.70
2019-05-20T10:38:32.408Z,31.62
2019-05-20T10:41:01.661Z,32.98
2019-05-20T10:43:30.788Z,38.67
2019-05-20T10:45:59.642Z,31.75
2019-05-20T10:48:29.103Z,34.45
2019-05-20T10:50:58.217Z,38.55
2019-05-20T10:53:28.486Z,38.53
2019-05-20T10:55:58.379Z,37.70
2019-05-20T10:58:27.688Z,37.03
2019-05-20T11:01:02.492Z,38.15
2019-05-20T11:03:27.737Z,33.23
2019-05-20T11:05:56.823Z,35.03
2019-05-20T11:08:26.573Z,37.33
2019-05-20T11:10:55.378Z,28.02
2019-05-20T11:13:24.777Z,41.68
2019-05-20T11:15:53.742Z,39.70
2019-05-20T11:18:22.670Z,44.58
2019-05-20T11:20:51.747Z,40.55
2019-05-20T11:23:20.777Z,28.50
2019-05-20T11:25:49.988Z,33.63
2019-05-20T11:28:19.075Z,28.38
2019-05-20T11:30:48.599Z,25.05
2019-05-20T11:33:18.050Z,19.07
2019-05-20T11:35:47.485Z,17.15
2019-05-20T11:38:16.732Z,13.28
2019-05-20T11:40:46.204Z,16.85
2019-05-20T11:43:15.196Z,12.68
2019-05-20T11:45:44.278Z,10.85
2019-05-20T11:48:13.241Z,12.37
2019-05-20T11:50:42.353Z,15.45
2019-05-20T11:53:11.482Z,18.77
2019-05-20T11:55:40.590Z,9.80
2019-05-20T11:58:15.862Z,8.63
2019-05-20T12:00:40.113Z,12.25
2019-05-20T12:03:09.214Z,10.13
2019-05-20T12:05:38.121Z,16.25
2019-05-20T12:08:06.972Z,4.85
2019-05-20T12:10:36.484Z,4.72
2019-05-20T12:13:05.585Z,4.22
2019-05-20T12:15:35.950Z,7.62
2019-05-20T12:18:04.850Z,4.83
2019-05-20T12:20:34.852Z,2.40
2019-05-20T12:23:03.807Z,4.15
2019-05-20T12:25:32.934Z,3.95
2019-05-20T12:28:02.055Z,7.90
2019-05-20T12:30:31.158Z,2.27
2019-05-20T12:33:17.975Z,8.75
2019-05-20T12:35:31.848Z,1.12
2019-05-20T12:38:00.791Z,4.62
2019-05-20T12:40:30.128Z,1.92
2019-05-20T12:42:59.227Z,4.65
2019-05-20T12:45:28.178Z,1.17
2019-05-20T12:47:57.555Z,3.05
2019-05-20T12:50:26.804Z,2.27
2019-05-20T12:52:56.029Z,1.45
2019-05-20T12:55:25.416Z,1.90
2019-05-20T12:57:54.187Z,1.40
2019-05-20T13:00:23.753Z,4.45
2019-05-20T13:02:52.911Z,2.87
2019-05-20T13:05:22.053Z,1.67
2019-05-20T13:07:51.191Z,2.75
2019-05-20T13:10:31.156Z,4.97
2019-05-20T13:12:51.105Z,1.02
2019-05-20T13:15:20.617Z,1.80
2019-05-20T13:17:49.814Z,5.87
2019-05-20T13:20:18.905Z,2.98
2019-05-20T13:22:56.293Z,1.77
2019-05-20T13:25:25.743Z,4.75
2019-05-20T13:27:54.998Z,2.85
2019-05-20T13:30:24.292Z,1.15
2019-05-20T13:32:53.331Z,1.40
2019-05-20T13:35:22.213Z,7.40
2019-05-20T13:37:51.352Z,8.23
2019-05-20T13:40:21.111Z,4.65
2019-05-20T13:42:50.325Z,3.58
2019-05-20T13:45:19.782Z,2.37
2019-05-20T13:47:48.772Z,9.10
2019-05-20T13:50:21.142Z,4.22
2019-05-20T13:52:50.051Z,2.65
2019-05-20T13:55:20.446Z,3.72
2019-05-20T13:57:49.730Z,7.12
2019-05-20T14:00:19.014Z,3.33
2019-05-20T14:02:47.944Z,6.28
2019-05-20T14:05:17.976Z,2.58
2019-05-20T14:07:46.817Z,4.42
2019-05-20T14:10:16.260Z,4.72
2019-05-20T14:12:45.078Z,2.35
2019-05-20T14:15:14.550Z,6.80
2019-05-20T14:17:43.840Z,4.08
2019-05-20T14:20:13.432Z,2.47
2019-05-20T14:22:42.650Z,2.08
2019-05-20T14:25:11.880Z,1.92
2019-05-20T14:27:40.711Z,3.42
2019-05-20T14:30:10.066Z,3.42
2019-05-20T14:32:39.402Z,3.17
2019-05-20T14:35:08.640Z,1.85
2019-05-20T14:37:38.915Z,1.47
2019-05-20T14:40:08.641Z,2.55
2019-05-20T14:42:39.969Z,3.58
2019-05-20T14:45:09.229Z,7.45
2019-05-20T14:47:38.669Z,1.62
2019-05-20T14:50:09.299Z,1.52
2019-05-20T14:52:38.545Z,5.87
2019-05-20T14:55:07.959Z,2.60
2019-05-20T14:57:37.938Z,2.22
2019-05-20T15:00:07.765Z,4.15
2019-05-20T15:02:37.249Z,1.82
2019-05-20T15:05:07.485Z,2.05
2019-05-20T15:07:36.717Z,1.90
2019-05-20T15:10:06.945Z,3.42
2019-05-20T15:12:35.925Z,1.95
2019-05-20T15:15:06.230Z,2.05
2019-05-20T15:17:35.241Z,1.60
2019-05-20T15:20:05.240Z,4.30
2019-05-20T15:22:34.108Z,6.17
2019-05-20T15:25:03.027Z,2.92
2019-05-20T15:27:33.092Z,2.70
2019-05-20T15:30:02.230Z,4.72
2019-05-20T15:32:31.145Z,2.40
2019-05-20T15:35:00.790Z,3.58
2019-05-20T15:37:29.946Z,2.95
2019-05-20T15:39:59.331Z,2.42
2019-05-20T15:42:28.242Z,1.70
2019-05-20T15:44:57.383Z,2.22
2019-05-20T15:47:26.138Z,4.17
2019-05-20T15:49:54.796Z,2.37
2019-05-20T15:52:26.597Z,1.47
2019-05-20T15:54:55.834Z,1.70
2019-05-20T15:57:25.598Z,2.50
2019-05-20T15:59:54.672Z,1.50
2019-05-20T16:02:23.686Z,1.60
2019-05-20T16:04:52.754Z,3.72
2019-05-20T16:07:21.560Z,2.00
2019-05-20T16:09:50.733Z,3.20
2019-05-20T16:12:19.917Z,2.77
2019-05-20T16:14:51.452Z,2.77
2019-05-20T16:17:19.452Z,3.92
2019-05-20T16:19:48.231Z,2.25
2019-05-20T16:22:17.326Z,1.70
2019-05-20T16:24:46.240Z,3.72
2019-05-20T16:27:15.406Z,2.60
2019-05-20T16:29:44.767Z,2.27
2019-05-20T16:32:14.514Z,6.75
2019-05-20T16:34:43.427Z,1.90
2019-05-20T16:37:12.338Z,3.37
2019-05-20T16:39:41.142Z,2.70
2019-05-20T16:42:09.765Z,4.10
2019-05-20T16:44:39.151Z,8.15
2019-05-20T16:47:10.228Z,5.08
2019-05-20T16:49:39.244Z,3.70
2019-05-20T16:52:08.435Z,2.25
2019-05-20T16:54:37.566Z,3.27
2019-05-20T16:57:06.800Z,2.83
2019-05-20T16:59:35.643Z,3.72
2019-05-20T17:02:04.696Z,3.55
2019-05-20T17:04:34.064Z,2.25
2019-05-20T17:07:03.302Z,3.12
2019-05-20T17:09:32.383Z,1.98
2019-05-20T17:12:01.064Z,3.02
2019-05-20T17:14:29.904Z,12.70
2019-05-20T17:16:59.079Z,4.58
2019-05-20T17:19:29.365Z,5.20
2019-05-20T17:21:58.398Z,3.35
2019-05-20T17:24:27.201Z,2.65
2019-05-20T17:26:56.140Z,4.30
2019-05-20T17:29:25.351Z,4.50
2019-05-20T17:31:54.438Z,4.20
2019-05-20T17:34:24.153Z,4.28
2019-05-20T17:36:53.575Z,5.87
2019-05-20T17:39:22.685Z,5.97
2019-05-20T17:41:52.116Z,6.50
2019-05-20T17:44:21.084Z,3.47
2019-05-20T17:46:49.834Z,3.75
2019-05-20T17:49:19.340Z,4.37
2019-05-20T17:51:48.233Z,4.37
2019-05-20T17:54:17.237Z,5.97
2019-05-20T17:56:46.610Z,4.12
2019-05-20T17:59:15.471Z,2.65
2019-05-20T18:01:44.947Z,6.92
2019-05-20T18:04:14.069Z,6.75
2019-05-20T18:06:43.173Z,4.22
2019-05-20T18:09:15.178Z,5.17
2019-05-20T18:11:44.436Z,4.28
2019-05-20T18:14:13.696Z,4.08
2019-05-20T18:16:42.996Z,9.68
2019-05-20T18:19:11.980Z,17.85
2019-05-20T18:21:41.585Z,7.92
2019-05-20T18:24:10.611Z,6.25
2019-05-20T18:26:39.708Z,6.85
2019-05-20T18:29:08.774Z,5.12
2019-05-20T18:31:38.365Z,7.05
2019-05-20T18:34:07.412Z,4.08
2019-05-20T18:36:36.677Z,4.30
2019-05-20T18:39:09.568Z,11.30
2019-05-20T18:41:39.511Z,5.37
2019-05-20T18:44:09.291Z,5.37
2019-05-20T18:46:38.700Z,6.42
2019-05-20T18:49:08.276Z,10.78
2019-05-20T18:51:37.399Z,9.33
2019-05-20T18:54:06.517Z,7.90
2019-05-20T18:56:37.692Z,47.00
2019-05-20T18:59:07.216Z,8.63
2019-05-20T19:01:50.602Z,6.53
2019-05-20T19:04:07.372Z,5.10
2019-05-20T19:06:37.255Z,7.62
2019-05-20T19:09:07.406Z,9.03
2019-05-20T19:11:37.062Z,5.92
2019-05-20T19:14:08.305Z,4.28
2019-05-20T19:16:36.846Z,6.30
2019-05-20T19:19:06.206Z,3.22
2019-05-20T19:21:35.617Z,8.50
2019-05-20T19:24:04.931Z,6.12
2019-05-20T19:26:34.037Z,4.47
2019-05-20T19:29:04.131Z,6.47
2019-05-20T19:31:33.463Z,6.37
2019-05-20T19:34:03.019Z,5.42
2019-05-20T19:36:32.270Z,8.18
2019-05-20T19:39:01.514Z,5.92
2019-05-20T19:41:31.693Z,7.90
2019-05-20T19:44:01.758Z,7.17
2019-05-20T19:46:32.115Z,5.03
2019-05-20T19:49:00.984Z,8.30
2019-05-20T19:51:30.991Z,5.65
2019-05-20T19:54:00.171Z,6.62
2019-05-20T19:56:29.234Z,5.22
2019-05-20T19:58:58.679Z,8.58
2019-05-20T20:01:28.139Z,5.65
2019-05-20T20:03:58.008Z,7.42
2019-05-20T20:06:27.644Z,6.05
2019-05-20T20:08:57.223Z,12.80
2019-05-20T20:11:26.315Z,8.58
2019-05-20T20:13:55.459Z,7.60
2019-05-20T20:16:24.789Z,8.68
2019-05-20T20:18:55.520Z,8.40
2019-05-20T20:21:24.928Z,4.20
2019-05-20T20:23:53.969Z,6.33
2019-05-20T20:26:23.405Z,6.53
2019-05-20T20:28:52.605Z,7.60
2019-05-20T20:31:21.545Z,10.80
2019-05-20T20:33:50.329Z,6.20
2019-05-20T20:36:21.310Z,6.53
2019-05-20T20:38:50.134Z,3.58
2019-05-20T20:41:19.941Z,5.17
2019-05-20T20:43:48.932Z,8.83
2019-05-20T20:46:17.973Z,6.40
2019-05-20T20:48:47.188Z,8.15
2019-05-20T20:51:16.520Z,6.70
2019-05-20T20:53:45.204Z,8.88
2019-05-20T20:56:24.897Z,6.15
2019-05-20T20:58:44.763Z,6.47
2019-05-20T21:01:13.724Z,6.17
2019-05-20T21:03:42.842Z,10.85
2019-05-20T21:06:11.848Z,7.30
2019-05-20T21:08:41.082Z,10.30
2019-05-20T21:11:10.038Z,8.25
2019-05-20T21:13:39.337Z,6.05
2019-05-20T21:16:08.249Z,7.42
2019-05-20T21:18:37.129Z,6.78
2019-05-20T21:21:08.019Z,10.13
2019-05-20T21:23:38.065Z,9.15
2019-05-20T21:26:07.376Z,8.20
2019-05-20T21:28:36.055Z,8.65
2019-05-20T21:31:05.099Z,7.78
2019-05-20T21:33:34.205Z,10.70
2019-05-20T21:36:03.251Z,10.05
2019-05-20T21:38:32.197Z,8.73
2019-05-20T21:41:01.288Z,8.80
2019-05-20T21:43:30.085Z,13.18
2019-05-20T21:45:59.150Z,14.78
2019-05-20T21:48:28.108Z,13.25
2019-05-20T21:50:56.785Z,11.05
2019-05-20T21:53:25.880Z,13.08
2019-05-20T21:55:55.005Z,11.83
2019-05-20T21:58:25.070Z,10.80
2019-05-20T22:00:55.279Z,10.43
2019-05-20T22:03:25.383Z,9.28
2019-05-20T22:05:54.894Z,9.35
2019-05-20T22:08:24.204Z,7.90
2019-05-20T22:10:53.484Z,8.60
2019-05-20T22:13:22.688Z,12.05
2019-05-20T22:15:51.903Z,8.45
2019-05-20T22:18:20.939Z,12.50
2019-05-20T22:20:50.349Z,10.00
2019-05-20T22:23:30.170Z,9.70
2019-05-20T22:25:59.121Z,7.58
2019-05-20T22:28:28.611Z,9.95
2019-05-20T22:31:03.015Z,8.13
2019-05-20T22:33:40.903Z,10.08
2019-05-20T22:36:02.823Z,8.78
2019-05-20T22:38:31.951Z,6.15
2019-05-20T22:41:00.933Z,6.90
2019-05-20T22:43:30.164Z,7.03
2019-05-20T22:45:59.284Z,7.45
2019-05-20T22:48:28.093Z,5.45
2019-05-20T22:50:57.399Z,11.30
2019-05-20T22:53:26.835Z,6.40
2019-05-20T22:55:55.613Z,7.08
2019-05-20T22:58:25.076Z,14.83
2019-05-20T23:00:54.520Z,7.83
2019-05-20T23:03:23.855Z,9.20
2019-05-20T23:05:53.152Z,9.05
2019-05-20T23:08:22.340Z,7.47
2019-05-20T23:10:51.634Z,9.75
2019-05-20T23:13:20.736Z,7.47
2019-05-20T23:15:49.571Z,9.98
2019-05-20T23:18:18.859Z,10.48
2019-05-20T23:20:48.110Z,9.05
2019-05-20T23:23:17.051Z,10.15
2019-05-20T23:25:46.350Z,7.03
2019-05-20T23:28:15.366Z,7.72
2019-05-20T23:30:44.421Z,6.35
2019-05-20T23:33:13.549Z,8.58
2019-05-20T23:35:42.829Z,9.10
2019-05-20T23:38:11.763Z,9.33
2019-05-20T23:40:42.033Z,9.75
2019-05-20T23:43:11.149Z,9.55
2019-05-20T23:45:40.271Z,11.50
2019-05-20T23:48:09.287Z,12.88
2019-05-20T23:50:38.597Z,7.15
2019-05-20T23:53:08.455Z,8.33
2019-05-20T23:55:37.392Z,11.68
2019-05-20T23:58:06.604Z,7.97
